sensor_id;sensor_type;location;lat;lon;timestamp;temperature;humidity
23703;DHT22;12030;50.376;8.762;2024-03-06T00:00:25;7.50;99.90
23703;DHT22;12030;50.376;8.762;2024-03-06T00:02:51;7.50;99.90
23703;DHT22;12030;50.376;8.762;2024-03-06T00:05:17;7.50;99.90
23703;DHT22;12030;50.376;8.762;2024-03-06T00:07:42;7.50;99.90
23703;DHT22;12030;50.376;8.762;2024-03-06T00:10:08;7.50;99.90
23703;DHT22;12030;50.376;8.762;2024-03-06T00:12:34;7.50;99.90
23703;DHT22;12030;50.376;8.762;2024-03-06T00:14:59;7.50;99.90
23703;DHT22;12030;50.376;8.762;2024-03-06T00:17:25;7.50;99.90
23703;DHT22;12030;50.376;8.762;2024-03-06T00:19:50;7.50;99.90
23703;DHT22;12030;50.376;8.762;2024-03-06T00:22:16;7.50;99.90
23703;DHT22;12030;50.376;8.762;2024-03-06T00:24:42;7.40;99.90
23703;DHT22;12030;50.376;8.762;2024-03-06T00:27:08;7.40;99.90
23703;DHT22;12030;50.376;8.762;2024-03-06T00:29:34;7.40;99.90
23703;DHT22;12030;50.376;8.762;2024-03-06T00:32:03;7.30;99.90
23703;DHT22;12030;50.376;8.762;2024-03-06T00:34:29;7.30;99.90
23703;DHT22;12030;50.376;8.762;2024-03-06T00:36:54;7.30;99.90
23703;DHT22;12030;50.376;8.762;2024-03-06T00:39:20;7.30;99.90
23703;DHT22;12030;50.376;8.762;2024-03-06T00:41:46;7.20;99.90
23703;DHT22;12030;50.376;8.762;2024-03-06T00:44:11;7.20;99.90
23703;DHT22;12030;50.376;8.762;2024-03-06T00:46:37;7.10;99.90
23703;DHT22;12030;50.376;8.762;2024-03-06T00:49:03;7.10;99.90
23703;DHT22;12030;50.376;8.762;2024-03-06T00:51:29;7.10;99.90
23703;DHT22;12030;50.376;8.762;2024-03-06T00:53:54;7.10;99.90
23703;DHT22;12030;50.376;8.762;2024-03-06T00:56:20;7.10;99.90
23703;DHT22;12030;50.376;8.762;2024-03-06T00:58:45;7.30;99.90
23703;DHT22;12030;50.376;8.762;2024-03-06T01:01:12;7.30;99.90
23703;DHT22;12030;50.376;8.762;2024-03-06T01:03:38;7.30;99.90
23703;DHT22;12030;50.376;8.762;2024-03-06T01:06:04;7.40;99.90
23703;DHT22;12030;50.376;8.762;2024-03-06T01:08:29;7.40;99.90
23703;DHT22;12030;50.376;8.762;2024-03-06T01:10:57;7.40;99.90
23703;DHT22;12030;50.376;8.762;2024-03-06T01:13:22;7.40;99.90
23703;DHT22;12030;50.376;8.762;2024-03-06T01:15:48;7.40;99.90
23703;DHT22;12030;50.376;8.762;2024-03-06T01:18:13;7.30;99.90
23703;DHT22;12030;50.376;8.762;2024-03-06T01:20:39;7.30;99.90
23703;DHT22;12030;50.376;8.762;2024-03-06T01:23:05;7.20;99.90
23703;DHT22;12030;50.376;8.762;2024-03-06T01:25:31;7.10;99.90
23703;DHT22;12030;50.376;8.762;2024-03-06T01:27:57;7.20;99.90
23703;DHT22;12030;50.376;8.762;2024-03-06T01:30:23;7.20;99.90
23703;DHT22;12030;50.376;8.762;2024-03-06T01:32:48;7.20;99.90
23703;DHT22;12030;50.376;8.762;2024-03-06T01:35:14;7.20;99.90
23703;DHT22;12030;50.376;8.762;2024-03-06T01:37:39;7.30;99.90
23703;DHT22;12030;50.376;8.762;2024-03-06T01:40:05;7.30;99.90
23703;DHT22;12030;50.376;8.762;2024-03-06T01:42:32;7.30;99.90
23703;DHT22;12030;50.376;8.762;2024-03-06T01:44:57;7.30;99.90
23703;DHT22;12030;50.376;8.762;2024-03-06T01:47:23;7.20;99.90
23703;DHT22;12030;50.376;8.762;2024-03-06T01:49:49;7.10;99.90
23703;DHT22;12030;50.376;8.762;2024-03-06T01:52:16;7.10;99.90
23703;DHT22;12030;50.376;8.762;2024-03-06T01:54:43;7.10;99.90
23703;DHT22;12030;50.376;8.762;2024-03-06T01:57:11;7.10;99.90
23703;DHT22;12030;50.376;8.762;2024-03-06T01:59:39;7.20;99.90
23703;DHT22;12030;50.376;8.762;2024-03-06T02:02:05;7.20;99.90
23703;DHT22;12030;50.376;8.762;2024-03-06T02:04:32;7.20;99.90
23703;DHT22;12030;50.376;8.762;2024-03-06T02:06:57;7.20;99.90
23703;DHT22;12030;50.376;8.762;2024-03-06T02:09:23;7.20;99.90
23703;DHT22;12030;50.376;8.762;2024-03-06T02:11:49;7.10;99.90
23703;DHT22;12030;50.376;8.762;2024-03-06T02:14:16;7.10;99.90
23703;DHT22;12030;50.376;8.762;2024-03-06T02:16:41;6.90;99.90
23703;DHT22;12030;50.376;8.762;2024-03-06T02:19:08;6.90;99.90
23703;DHT22;12030;50.376;8.762;2024-03-06T02:21:33;6.90;99.90
23703;DHT22;12030;50.376;8.762;2024-03-06T02:23:59;6.90;99.90
23703;DHT22;12030;50.376;8.762;2024-03-06T02:26:25;6.90;99.90
23703;DHT22;12030;50.376;8.762;2024-03-06T02:28:52;7.00;99.90
23703;DHT22;12030;50.376;8.762;2024-03-06T02:31:18;7.00;99.90
23703;DHT22;12030;50.376;8.762;2024-03-06T02:33:47;6.90;99.90
23703;DHT22;12030;50.376;8.762;2024-03-06T02:36:14;6.70;99.90
23703;DHT22;12030;50.376;8.762;2024-03-06T02:38:40;6.70;99.90
23703;DHT22;12030;50.376;8.762;2024-03-06T02:41:05;6.70;99.90
23703;DHT22;12030;50.376;8.762;2024-03-06T02:43:32;6.80;99.90
23703;DHT22;12030;50.376;8.762;2024-03-06T02:45:58;6.80;99.90
23703;DHT22;12030;50.376;8.762;2024-03-06T02:48:24;6.90;99.90
23703;DHT22;12030;50.376;8.762;2024-03-06T02:50:49;6.90;99.90
23703;DHT22;12030;50.376;8.762;2024-03-06T02:53:15;6.90;99.90
23703;DHT22;12030;50.376;8.762;2024-03-06T02:55:40;6.90;99.90
23703;DHT22;12030;50.376;8.762;2024-03-06T02:58:06;6.90;99.90
23703;DHT22;12030;50.376;8.762;2024-03-06T03:00:31;6.90;99.90
23703;DHT22;12030;50.376;8.762;2024-03-06T03:02:57;6.90;99.90
23703;DHT22;12030;50.376;8.762;2024-03-06T03:05:23;6.90;99.90
23703;DHT22;12030;50.376;8.762;2024-03-06T03:07:49;6.80;99.90
23703;DHT22;12030;50.376;8.762;2024-03-06T03:10:15;6.80;99.90
23703;DHT22;12030;50.376;8.762;2024-03-06T03:12:41;6.80;99.90
23703;DHT22;12030;50.376;8.762;2024-03-06T03:15:07;6.90;99.90
23703;DHT22;12030;50.376;8.762;2024-03-06T03:17:33;6.90;99.90
23703;DHT22;12030;50.376;8.762;2024-03-06T03:20:02;6.90;99.90
23703;DHT22;12030;50.376;8.762;2024-03-06T03:22:36;6.90;99.90
23703;DHT22;12030;50.376;8.762;2024-03-06T03:25:02;6.80;99.90
23703;DHT22;12030;50.376;8.762;2024-03-06T03:27:28;6.70;99.90
23703;DHT22;12030;50.376;8.762;2024-03-06T03:29:54;6.80;99.90
23703;DHT22;12030;50.376;8.762;2024-03-06T03:32:19;6.80;99.90
23703;DHT22;12030;50.376;8.762;2024-03-06T03:34:45;6.70;99.90
23703;DHT22;12030;50.376;8.762;2024-03-06T03:37:12;6.70;99.90
23703;DHT22;12030;50.376;8.762;2024-03-06T03:39:38;6.60;99.90
23703;DHT22;12030;50.376;8.762;2024-03-06T03:42:03;6.60;99.90
23703;DHT22;12030;50.376;8.762;2024-03-06T03:44:29;6.50;99.90
23703;DHT22;12030;50.376;8.762;2024-03-06T03:46:54;6.50;99.90
23703;DHT22;12030;50.376;8.762;2024-03-06T03:49:20;6.50;99.90
23703;DHT22;12030;50.376;8.762;2024-03-06T03:51:45;6.50;99.90
23703;DHT22;12030;50.376;8.762;2024-03-06T03:54:11;6.50;99.90
23703;DHT22;12030;50.376;8.762;2024-03-06T03:56:37;6.50;99.90
23703;DHT22;12030;50.376;8.762;2024-03-06T03:59:03;6.50;99.90
23703;DHT22;12030;50.376;8.762;2024-03-06T04:01:28;6.40;99.90
23703;DHT22;12030;50.376;8.762;2024-03-06T04:03:54;6.40;99.90
23703;DHT22;12030;50.376;8.762;2024-03-06T04:06:19;6.40;99.90
23703;DHT22;12030;50.376;8.762;2024-03-06T04:08:45;6.40;99.90
23703;DHT22;12030;50.376;8.762;2024-03-06T04:11:11;6.40;99.90
23703;DHT22;12030;50.376;8.762;2024-03-06T04:13:37;6.40;99.90
23703;DHT22;12030;50.376;8.762;2024-03-06T04:16:03;6.40;99.90
23703;DHT22;12030;50.376;8.762;2024-03-06T04:18:29;6.40;99.90
23703;DHT22;12030;50.376;8.762;2024-03-06T04:21:01;6.40;99.90
23703;DHT22;12030;50.376;8.762;2024-03-06T04:23:27;6.40;99.90
23703;DHT22;12030;50.376;8.762;2024-03-06T04:25:52;6.40;99.90
23703;DHT22;12030;50.376;8.762;2024-03-06T04:28:18;6.40;99.90
23703;DHT22;12030;50.376;8.762;2024-03-06T04:30:44;6.40;99.90
23703;DHT22;12030;50.376;8.762;2024-03-06T04:33:09;6.30;99.90
23703;DHT22;12030;50.376;8.762;2024-03-06T04:35:39;6.30;99.90
23703;DHT22;12030;50.376;8.762;2024-03-06T04:38:04;6.40;99.90
23703;DHT22;12030;50.376;8.762;2024-03-06T04:40:31;6.40;99.90
23703;DHT22;12030;50.376;8.762;2024-03-06T04:42:56;6.30;99.90
23703;DHT22;12030;50.376;8.762;2024-03-06T04:45:22;6.30;99.90
23703;DHT22;12030;50.376;8.762;2024-03-06T04:47:48;6.30;99.90
23703;DHT22;12030;50.376;8.762;2024-03-06T04:50:13;6.30;99.90
23703;DHT22;12030;50.376;8.762;2024-03-06T04:52:42;6.20;99.90
23703;DHT22;12030;50.376;8.762;2024-03-06T04:55:09;6.20;99.90
23703;DHT22;12030;50.376;8.762;2024-03-06T04:57:42;6.20;99.90
23703;DHT22;12030;50.376;8.762;2024-03-06T05:00:09;6.30;99.90
23703;DHT22;12030;50.376;8.762;2024-03-06T05:02:36;6.20;99.90
23703;DHT22;12030;50.376;8.762;2024-03-06T05:05:03;6.20;99.90
23703;DHT22;12030;50.376;8.762;2024-03-06T05:07:29;6.20;99.90
23703;DHT22;12030;50.376;8.762;2024-03-06T05:09:56;6.20;99.90
23703;DHT22;12030;50.376;8.762;2024-03-06T05:12:25;6.20;99.90
23703;DHT22;12030;50.376;8.762;2024-03-06T05:14:55;6.20;99.90
23703;DHT22;12030;50.376;8.762;2024-03-06T05:17:21;6.20;99.90
23703;DHT22;12030;50.376;8.762;2024-03-06T05:19:47;6.20;99.90
23703;DHT22;12030;50.376;8.762;2024-03-06T05:22:14;6.20;99.90
23703;DHT22;12030;50.376;8.762;2024-03-06T05:24:41;6.10;99.90
23703;DHT22;12030;50.376;8.762;2024-03-06T05:27:06;6.00;99.90
23703;DHT22;12030;50.376;8.762;2024-03-06T05:29:32;6.00;99.90
23703;DHT22;12030;50.376;8.762;2024-03-06T05:31:58;5.90;99.90
23703;DHT22;12030;50.376;8.762;2024-03-06T05:34:24;6.00;99.90
23703;DHT22;12030;50.376;8.762;2024-03-06T05:36:49;5.90;99.90
23703;DHT22;12030;50.376;8.762;2024-03-06T05:39:15;5.90;99.90
23703;DHT22;12030;50.376;8.762;2024-03-06T05:41:43;5.90;99.90
23703;DHT22;12030;50.376;8.762;2024-03-06T05:44:09;5.90;99.90
23703;DHT22;12030;50.376;8.762;2024-03-06T05:46:35;5.80;99.90
23703;DHT22;12030;50.376;8.762;2024-03-06T05:49:01;5.70;99.90
23703;DHT22;12030;50.376;8.762;2024-03-06T05:51:27;5.70;99.90
23703;DHT22;12030;50.376;8.762;2024-03-06T05:53:53;5.70;99.90
23703;DHT22;12030;50.376;8.762;2024-03-06T05:56:19;5.70;99.90
23703;DHT22;12030;50.376;8.762;2024-03-06T05:58:44;5.70;99.90
23703;DHT22;12030;50.376;8.762;2024-03-06T06:01:12;5.70;99.90
23703;DHT22;12030;50.376;8.762;2024-03-06T06:03:39;5.80;99.90
23703;DHT22;12030;50.376;8.762;2024-03-06T06:06:05;5.80;99.90
23703;DHT22;12030;50.376;8.762;2024-03-06T06:08:30;5.90;99.90
23703;DHT22;12030;50.376;8.762;2024-03-06T06:10:56;5.80;99.90
23703;DHT22;12030;50.376;8.762;2024-03-06T06:13:21;5.80;99.90
23703;DHT22;12030;50.376;8.762;2024-03-06T06:15:47;5.80;99.90
23703;DHT22;12030;50.376;8.762;2024-03-06T06:18:13;5.80;99.90
23703;DHT22;12030;50.376;8.762;2024-03-06T06:20:40;5.70;99.90
23703;DHT22;12030;50.376;8.762;2024-03-06T06:23:05;5.80;99.90
23703;DHT22;12030;50.376;8.762;2024-03-06T06:25:31;5.90;99.90
23703;DHT22;12030;50.376;8.762;2024-03-06T06:27:56;5.90;99.90
23703;DHT22;12030;50.376;8.762;2024-03-06T06:30:22;5.90;99.90
23703;DHT22;12030;50.376;8.762;2024-03-06T06:32:48;5.90;99.90
23703;DHT22;12030;50.376;8.762;2024-03-06T06:35:13;5.90;99.90
23703;DHT22;12030;50.376;8.762;2024-03-06T06:37:39;5.90;99.90
23703;DHT22;12030;50.376;8.762;2024-03-06T06:40:08;6.00;99.90
23703;DHT22;12030;50.376;8.762;2024-03-06T06:42:34;6.10;99.90
23703;DHT22;12030;50.376;8.762;2024-03-06T06:45:01;6.10;99.90
23703;DHT22;12030;50.376;8.762;2024-03-06T06:47:28;6.10;99.90
23703;DHT22;12030;50.376;8.762;2024-03-06T06:49:53;6.10;99.90
23703;DHT22;12030;50.376;8.762;2024-03-06T06:52:19;6.00;99.90
23703;DHT22;12030;50.376;8.762;2024-03-06T06:54:45;6.00;99.90
23703;DHT22;12030;50.376;8.762;2024-03-06T06:57:10;6.00;99.90
23703;DHT22;12030;50.376;8.762;2024-03-06T06:59:36;6.00;99.90
23703;DHT22;12030;50.376;8.762;2024-03-06T07:02:03;6.00;99.90
23703;DHT22;12030;50.376;8.762;2024-03-06T07:04:29;6.00;99.90
23703;DHT22;12030;50.376;8.762;2024-03-06T07:06:54;6.10;99.90
23703;DHT22;12030;50.376;8.762;2024-03-06T07:09:20;6.20;99.90
23703;DHT22;12030;50.376;8.762;2024-03-06T07:11:46;6.30;99.90
23703;DHT22;12030;50.376;8.762;2024-03-06T07:14:14;6.40;99.90
23703;DHT22;12030;50.376;8.762;2024-03-06T07:16:44;6.40;99.90
23703;DHT22;12030;50.376;8.762;2024-03-06T07:19:10;6.40;99.90
23703;DHT22;12030;50.376;8.762;2024-03-06T07:21:35;6.40;99.90
23703;DHT22;12030;50.376;8.762;2024-03-06T07:24:01;6.40;99.90
23703;DHT22;12030;50.376;8.762;2024-03-06T07:26:26;6.50;99.90
23703;DHT22;12030;50.376;8.762;2024-03-06T07:28:55;6.40;99.90
23703;DHT22;12030;50.376;8.762;2024-03-06T07:31:21;6.50;99.90
23703;DHT22;12030;50.376;8.762;2024-03-06T07:33:46;6.40;99.90
23703;DHT22;12030;50.376;8.762;2024-03-06T07:36:12;6.40;99.90
23703;DHT22;12030;50.376;8.762;2024-03-06T07:38:37;6.40;99.90
23703;DHT22;12030;50.376;8.762;2024-03-06T07:41:03;6.40;99.90
23703;DHT22;12030;50.376;8.762;2024-03-06T07:43:28;6.40;99.90
23703;DHT22;12030;50.376;8.762;2024-03-06T07:45:54;6.40;99.90
23703;DHT22;12030;50.376;8.762;2024-03-06T07:48:19;6.50;99.90
23703;DHT22;12030;50.376;8.762;2024-03-06T07:50:45;6.50;99.90
23703;DHT22;12030;50.376;8.762;2024-03-06T07:53:10;6.40;99.90
23703;DHT22;12030;50.376;8.762;2024-03-06T07:55:36;6.50;99.90
23703;DHT22;12030;50.376;8.762;2024-03-06T07:58:04;6.50;99.90
23703;DHT22;12030;50.376;8.762;2024-03-06T08:00:29;6.60;99.90
23703;DHT22;12030;50.376;8.762;2024-03-06T08:02:56;6.60;99.90
23703;DHT22;12030;50.376;8.762;2024-03-06T08:05:22;6.70;99.90
23703;DHT22;12030;50.376;8.762;2024-03-06T08:07:48;6.70;99.90
23703;DHT22;12030;50.376;8.762;2024-03-06T08:10:13;6.80;99.90
23703;DHT22;12030;50.376;8.762;2024-03-06T08:12:40;7.00;99.90
23703;DHT22;12030;50.376;8.762;2024-03-06T08:15:08;7.20;99.90
23703;DHT22;12030;50.376;8.762;2024-03-06T08:17:35;7.40;99.90
23703;DHT22;12030;50.376;8.762;2024-03-06T08:20:02;7.50;99.90
23703;DHT22;12030;50.376;8.762;2024-03-06T08:22:31;7.60;99.90
23703;DHT22;12030;50.376;8.762;2024-03-06T08:24:56;7.60;99.90
23703;DHT22;12030;50.376;8.762;2024-03-06T08:27:22;7.70;99.90
23703;DHT22;12030;50.376;8.762;2024-03-06T08:29:47;7.50;99.90
23703;DHT22;12030;50.376;8.762;2024-03-06T08:32:14;7.50;99.90
23703;DHT22;12030;50.376;8.762;2024-03-06T08:34:39;7.50;99.90
23703;DHT22;12030;50.376;8.762;2024-03-06T08:37:04;7.40;99.90
23703;DHT22;12030;50.376;8.762;2024-03-06T08:39:31;7.40;99.90
23703;DHT22;12030;50.376;8.762;2024-03-06T08:41:57;7.40;99.90
23703;DHT22;12030;50.376;8.762;2024-03-06T08:44:23;7.40;99.90
23703;DHT22;12030;50.376;8.762;2024-03-06T08:46:48;7.40;99.90
23703;DHT22;12030;50.376;8.762;2024-03-06T08:49:14;7.50;99.90
23703;DHT22;12030;50.376;8.762;2024-03-06T08:51:39;7.50;99.90
23703;DHT22;12030;50.376;8.762;2024-03-06T08:54:05;7.50;99.90
23703;DHT22;12030;50.376;8.762;2024-03-06T08:56:30;7.50;99.90
23703;DHT22;12030;50.376;8.762;2024-03-06T08:58:56;7.50;99.90
23703;DHT22;12030;50.376;8.762;2024-03-06T09:01:21;7.60;99.90
23703;DHT22;12030;50.376;8.762;2024-03-06T09:03:47;7.60;99.90
23703;DHT22;12030;50.376;8.762;2024-03-06T09:06:12;7.70;99.90
23703;DHT22;12030;50.376;8.762;2024-03-06T09:08:38;7.80;99.90
23703;DHT22;12030;50.376;8.762;2024-03-06T09:11:04;7.90;99.90
23703;DHT22;12030;50.376;8.762;2024-03-06T09:13:29;8.00;99.90
23703;DHT22;12030;50.376;8.762;2024-03-06T09:15:54;7.90;99.90
23703;DHT22;12030;50.376;8.762;2024-03-06T09:18:20;8.00;99.90
23703;DHT22;12030;50.376;8.762;2024-03-06T09:20:46;8.10;99.90
23703;DHT22;12030;50.376;8.762;2024-03-06T09:23:11;8.20;99.90
23703;DHT22;12030;50.376;8.762;2024-03-06T09:25:37;8.20;99.90
23703;DHT22;12030;50.376;8.762;2024-03-06T09:28:03;8.30;99.90
23703;DHT22;12030;50.376;8.762;2024-03-06T09:30:30;8.40;99.90
23703;DHT22;12030;50.376;8.762;2024-03-06T09:32:56;8.40;99.90
23703;DHT22;12030;50.376;8.762;2024-03-06T09:35:21;8.30;99.90
23703;DHT22;12030;50.376;8.762;2024-03-06T09:37:47;8.40;99.90
23703;DHT22;12030;50.376;8.762;2024-03-06T09:40:22;8.50;99.90
23703;DHT22;12030;50.376;8.762;2024-03-06T09:42:49;8.60;99.90
23703;DHT22;12030;50.376;8.762;2024-03-06T09:45:16;8.70;99.90
23703;DHT22;12030;50.376;8.762;2024-03-06T09:47:43;8.60;99.90
23703;DHT22;12030;50.376;8.762;2024-03-06T09:50:09;8.80;99.90
23703;DHT22;12030;50.376;8.762;2024-03-06T09:52:36;8.70;99.90
23703;DHT22;12030;50.376;8.762;2024-03-06T09:55:02;8.80;99.90
23703;DHT22;12030;50.376;8.762;2024-03-06T09:57:29;8.90;99.90
23703;DHT22;12030;50.376;8.762;2024-03-06T09:59:55;9.00;99.90
23703;DHT22;12030;50.376;8.762;2024-03-06T10:02:46;8.90;99.90
23703;DHT22;12030;50.376;8.762;2024-03-06T10:05:21;9.10;99.90
23703;DHT22;12030;50.376;8.762;2024-03-06T10:07:47;9.10;99.90
23703;DHT22;12030;50.376;8.762;2024-03-06T10:10:14;9.20;99.90
23703;DHT22;12030;50.376;8.762;2024-03-06T10:12:41;9.20;99.90
23703;DHT22;12030;50.376;8.762;2024-03-06T10:15:06;9.30;99.90
23703;DHT22;12030;50.376;8.762;2024-03-06T10:17:35;9.20;99.90
23703;DHT22;12030;50.376;8.762;2024-03-06T10:20:01;9.30;99.90
23703;DHT22;12030;50.376;8.762;2024-03-06T10:22:30;9.40;99.90
23703;DHT22;12030;50.376;8.762;2024-03-06T10:24:57;9.60;99.90
23703;DHT22;12030;50.376;8.762;2024-03-06T10:27:22;9.70;99.90
23703;DHT22;12030;50.376;8.762;2024-03-06T10:30:01;9.90;99.90
23703;DHT22;12030;50.376;8.762;2024-03-06T10:32:26;10.00;99.90
23703;DHT22;12030;50.376;8.762;2024-03-06T10:34:52;9.90;99.90
23703;DHT22;12030;50.376;8.762;2024-03-06T10:37:18;10.00;99.90
23703;DHT22;12030;50.376;8.762;2024-03-06T10:39:43;10.10;99.90
23703;DHT22;12030;50.376;8.762;2024-03-06T10:42:12;10.20;99.90
23703;DHT22;12030;50.376;8.762;2024-03-06T10:44:48;10.40;99.90
23703;DHT22;12030;50.376;8.762;2024-03-06T10:47:17;10.30;99.90
23703;DHT22;12030;50.376;8.762;2024-03-06T10:49:44;10.30;99.90
23703;DHT22;12030;50.376;8.762;2024-03-06T10:52:11;10.50;99.90
23703;DHT22;12030;50.376;8.762;2024-03-06T10:54:38;10.60;99.90
23703;DHT22;12030;50.376;8.762;2024-03-06T10:57:08;10.50;99.90
23703;DHT22;12030;50.376;8.762;2024-03-06T10:59:35;10.70;99.90
23703;DHT22;12030;50.376;8.762;2024-03-06T11:02:01;10.80;99.90
23703;DHT22;12030;50.376;8.762;2024-03-06T11:04:30;10.90;99.90
23703;DHT22;12030;50.376;8.762;2024-03-06T11:07:00;11.10;99.90
23703;DHT22;12030;50.376;8.762;2024-03-06T11:09:27;11.40;99.90
23703;DHT22;12030;50.376;8.762;2024-03-06T11:11:54;11.50;99.90
23703;DHT22;12030;50.376;8.762;2024-03-06T11:14:22;11.40;99.90
23703;DHT22;12030;50.376;8.762;2024-03-06T11:16:58;11.30;99.90
23703;DHT22;12030;50.376;8.762;2024-03-06T11:19:24;11.10;99.90
23703;DHT22;12030;50.376;8.762;2024-03-06T11:21:49;11.20;99.90
23703;DHT22;12030;50.376;8.762;2024-03-06T11:24:17;11.30;99.90
23703;DHT22;12030;50.376;8.762;2024-03-06T11:26:54;11.40;99.90
23703;DHT22;12030;50.376;8.762;2024-03-06T11:29:22;11.30;99.90
23703;DHT22;12030;50.376;8.762;2024-03-06T11:32:04;11.30;99.90
23703;DHT22;12030;50.376;8.762;2024-03-06T11:34:36;11.20;99.90
23703;DHT22;12030;50.376;8.762;2024-03-06T11:37:07;10.80;99.90
23703;DHT22;12030;50.376;8.762;2024-03-06T11:39:36;10.80;99.90
23703;DHT22;12030;50.376;8.762;2024-03-06T11:42:02;10.90;99.90
23703;DHT22;12030;50.376;8.762;2024-03-06T11:44:28;11.00;99.90
23703;DHT22;12030;50.376;8.762;2024-03-06T11:46:58;11.20;99.90
23703;DHT22;12030;50.376;8.762;2024-03-06T11:49:26;11.30;99.90
23703;DHT22;12030;50.376;8.762;2024-03-06T11:51:56;11.50;99.90
23703;DHT22;12030;50.376;8.762;2024-03-06T11:54:23;11.40;99.90
23703;DHT22;12030;50.376;8.762;2024-03-06T11:56:52;11.40;99.90
23703;DHT22;12030;50.376;8.762;2024-03-06T11:59:21;11.40;99.90
23703;DHT22;12030;50.376;8.762;2024-03-06T12:01:47;11.50;99.90
23703;DHT22;12030;50.376;8.762;2024-03-06T12:04:13;11.60;99.90
23703;DHT22;12030;50.376;8.762;2024-03-06T12:06:39;11.70;99.90
23703;DHT22;12030;50.376;8.762;2024-03-06T12:09:04;11.70;99.90
23703;DHT22;12030;50.376;8.762;2024-03-06T12:11:30;11.70;99.90
23703;DHT22;12030;50.376;8.762;2024-03-06T12:13:56;11.70;99.90
23703;DHT22;12030;50.376;8.762;2024-03-06T12:16:22;11.60;99.90
23703;DHT22;12030;50.376;8.762;2024-03-06T12:18:58;11.60;99.90
23703;DHT22;12030;50.376;8.762;2024-03-06T12:21:33;11.50;99.90
23703;DHT22;12030;50.376;8.762;2024-03-06T12:24:09;11.40;99.90
23703;DHT22;12030;50.376;8.762;2024-03-06T12:26:37;11.50;99.90
23703;DHT22;12030;50.376;8.762;2024-03-06T12:29:04;11.60;99.90
23703;DHT22;12030;50.376;8.762;2024-03-06T12:31:31;11.60;99.90
23703;DHT22;12030;50.376;8.762;2024-03-06T12:33:57;11.60;99.90
23703;DHT22;12030;50.376;8.762;2024-03-06T12:36:25;11.60;99.90
23703;DHT22;12030;50.376;8.762;2024-03-06T12:39:01;11.70;99.90
23703;DHT22;12030;50.376;8.762;2024-03-06T12:41:27;11.70;99.90
23703;DHT22;12030;50.376;8.762;2024-03-06T12:43:54;11.80;99.90
23703;DHT22;12030;50.376;8.762;2024-03-06T12:46:21;11.70;99.90
23703;DHT22;12030;50.376;8.762;2024-03-06T12:48:46;11.70;99.90
23703;DHT22;12030;50.376;8.762;2024-03-06T12:51:12;11.60;99.90
23703;DHT22;12030;50.376;8.762;2024-03-06T12:53:37;11.60;99.90
23703;DHT22;12030;50.376;8.762;2024-03-06T12:56:03;11.50;99.90
23703;DHT22;12030;50.376;8.762;2024-03-06T12:58:29;11.50;99.90
23703;DHT22;12030;50.376;8.762;2024-03-06T13:00:57;11.50;99.90
23703;DHT22;12030;50.376;8.762;2024-03-06T13:03:23;11.70;99.90
23703;DHT22;12030;50.376;8.762;2024-03-06T13:05:48;11.60;99.90
23703;DHT22;12030;50.376;8.762;2024-03-06T13:08:14;11.50;99.90
23703;DHT22;12030;50.376;8.762;2024-03-06T13:10:41;11.30;99.90
23703;DHT22;12030;50.376;8.762;2024-03-06T13:13:06;11.30;99.90
23703;DHT22;12030;50.376;8.762;2024-03-06T13:15:33;11.30;99.90
23703;DHT22;12030;50.376;8.762;2024-03-06T13:18:00;11.40;99.90
23703;DHT22;12030;50.376;8.762;2024-03-06T13:20:29;11.30;99.90
23703;DHT22;12030;50.376;8.762;2024-03-06T13:22:54;11.30;99.90
23703;DHT22;12030;50.376;8.762;2024-03-06T13:25:20;11.30;99.90
23703;DHT22;12030;50.376;8.762;2024-03-06T13:27:46;11.20;99.90
23703;DHT22;12030;50.376;8.762;2024-03-06T13:30:12;11.40;99.90
23703;DHT22;12030;50.376;8.762;2024-03-06T13:32:37;11.40;99.90
23703;DHT22;12030;50.376;8.762;2024-03-06T13:35:04;11.30;99.90
23703;DHT22;12030;50.376;8.762;2024-03-06T13:37:32;11.40;99.90
23703;DHT22;12030;50.376;8.762;2024-03-06T13:39:57;11.50;99.90
23703;DHT22;12030;50.376;8.762;2024-03-06T13:42:26;11.40;99.90
23703;DHT22;12030;50.376;8.762;2024-03-06T13:44:52;11.50;99.90
23703;DHT22;12030;50.376;8.762;2024-03-06T13:47:18;11.60;99.90
23703;DHT22;12030;50.376;8.762;2024-03-06T13:49:43;11.60;99.90
23703;DHT22;12030;50.376;8.762;2024-03-06T13:52:10;11.50;99.90
23703;DHT22;12030;50.376;8.762;2024-03-06T13:54:42;11.50;99.90
23703;DHT22;12030;50.376;8.762;2024-03-06T13:57:08;11.60;99.90
23703;DHT22;12030;50.376;8.762;2024-03-06T13:59:35;11.60;99.90
23703;DHT22;12030;50.376;8.762;2024-03-06T14:02:01;11.50;99.90
23703;DHT22;12030;50.376;8.762;2024-03-06T14:04:28;11.50;99.90
23703;DHT22;12030;50.376;8.762;2024-03-06T14:06:54;11.50;99.90
23703;DHT22;12030;50.376;8.762;2024-03-06T14:09:19;11.40;99.90
23703;DHT22;12030;50.376;8.762;2024-03-06T14:11:45;11.60;99.90
23703;DHT22;12030;50.376;8.762;2024-03-06T14:14:11;11.60;99.90
23703;DHT22;12030;50.376;8.762;2024-03-06T14:16:38;11.40;99.90
23703;DHT22;12030;50.376;8.762;2024-03-06T14:19:05;11.50;99.90
23703;DHT22;12030;50.376;8.762;2024-03-06T14:21:30;11.50;99.90
23703;DHT22;12030;50.376;8.762;2024-03-06T14:23:58;11.60;99.90
23703;DHT22;12030;50.376;8.762;2024-03-06T14:26:24;11.70;99.90
23703;DHT22;12030;50.376;8.762;2024-03-06T14:28:49;11.80;99.90
23703;DHT22;12030;50.376;8.762;2024-03-06T14:31:15;11.70;99.90
23703;DHT22;12030;50.376;8.762;2024-03-06T14:33:40;11.80;99.90
23703;DHT22;12030;50.376;8.762;2024-03-06T14:36:06;12.00;99.90
23703;DHT22;12030;50.376;8.762;2024-03-06T14:38:32;11.90;99.90
23703;DHT22;12030;50.376;8.762;2024-03-06T14:40:58;11.90;99.90
23703;DHT22;12030;50.376;8.762;2024-03-06T14:43:24;11.80;99.90
23703;DHT22;12030;50.376;8.762;2024-03-06T14:45:50;11.70;99.90
23703;DHT22;12030;50.376;8.762;2024-03-06T14:48:16;11.70;99.90
23703;DHT22;12030;50.376;8.762;2024-03-06T14:50:41;11.70;99.90
23703;DHT22;12030;50.376;8.762;2024-03-06T14:53:07;11.70;99.90
23703;DHT22;12030;50.376;8.762;2024-03-06T14:55:33;11.80;99.90
23703;DHT22;12030;50.376;8.762;2024-03-06T14:57:59;11.90;99.90
23703;DHT22;12030;50.376;8.762;2024-03-06T15:00:25;12.00;99.90
23703;DHT22;12030;50.376;8.762;2024-03-06T15:02:50;11.70;99.90
23703;DHT22;12030;50.376;8.762;2024-03-06T15:05:16;11.70;99.90
23703;DHT22;12030;50.376;8.762;2024-03-06T15:07:41;11.80;99.90
23703;DHT22;12030;50.376;8.762;2024-03-06T15:10:07;11.80;99.90
23703;DHT22;12030;50.376;8.762;2024-03-06T15:12:34;11.70;99.90
23703;DHT22;12030;50.376;8.762;2024-03-06T15:15:01;11.80;99.90
23703;DHT22;12030;50.376;8.762;2024-03-06T15:17:28;11.80;99.90
23703;DHT22;12030;50.376;8.762;2024-03-06T15:19:53;11.80;99.90
23703;DHT22;12030;50.376;8.762;2024-03-06T15:22:19;11.70;99.90
23703;DHT22;12030;50.376;8.762;2024-03-06T15:24:45;11.60;99.90
23703;DHT22;12030;50.376;8.762;2024-03-06T15:27:11;11.60;99.90
23703;DHT22;12030;50.376;8.762;2024-03-06T15:29:37;11.70;99.90
23703;DHT22;12030;50.376;8.762;2024-03-06T15:32:03;11.70;99.90
23703;DHT22;12030;50.376;8.762;2024-03-06T15:34:28;11.70;99.90